»·PEaware :: N516DM KMRY-KSAC

N516DM :: KMRY-KSAC

FLIGHT INFORMATION

Flight Status: Arrived
Operator: Privately registered:
United States
More flights under this callsign
Pilot: Thomas H. (5912)
Aircraft: BEECH AIRCRAFT DEBONAIR BONANZA
(BE33)
More flights by this aircraft type
Origin: KMRY Monterey Peninsula
United States
Destination: KSAC Sacramento Executive
United States
More flights between these airports :: More routes between these airports
Route: SNS V111 MOD LIN
File this flight plan on PilotEdge
Remarks:
Altitude:
(Current/Filed)
6,000ft
Speed:
(Current/Filed)
160kts
Departed: 21-Aug-18 09:28 AM
Arrived: 21-Aug-18 10:27 AM
Distance/Time
Traveled:
117nm/0:58
Distance/Time
To Go:
Arrived

Flight Plot

Page will automatically refresh every two minutes.

Flight plan parsing failed; only flown route is shown


Map Options




Map Legend


Flown Route
Filed Route
Departure Airport
Arrival Airport
Navaid (VOR, NDB)
Fix

Horizontal Profiles

Position Reports

Time Latitude Longitude Heading Altitude Ground
Speed
21-Aug-18 09:18 36.584900 -121.844131 23 214ft 0kts
21-Aug-18 09:19 36.584900 -121.844131 23 214ft 0kts
21-Aug-18 09:20 36.584900 -121.844131 23 214ft 0kts
21-Aug-18 09:21 36.584900 -121.844131 23 214ft 0kts
21-Aug-18 09:22 36.584900 -121.844131 23 214ft 0kts
21-Aug-18 09:23 36.584900 -121.844131 23 214ft 0kts
21-Aug-18 09:24 36.584900 -121.844131 23 214ft 0kts
21-Aug-18 09:25 36.585009 -121.843980 67 214ft 4kts
21-Aug-18 09:26 36.584627 -121.840260 112 234ft 17kts
21-Aug-18 09:27 36.582820 -121.834731 92 232ft 0kts
21-Aug-18 09:28 36.582802 -121.834153 89 229ft 15kts
21-Aug-18 09:29 36.588095 -121.846474 295 505ft 94kts
21-Aug-18 09:30 36.607521 -121.868091 346 1580ft 101kts
21-Aug-18 09:31 36.635994 -121.877463 341 2404ft 113kts
21-Aug-18 09:32 36.666938 -121.888922 341 3215ft 118kts
21-Aug-18 09:33 36.698215 -121.900779 341 4030ft 116kts
21-Aug-18 09:34 36.727960 -121.911889 359 4910ft 109kts
21-Aug-18 09:35 36.737843 -121.880593 90 5737ft 110kts
21-Aug-18 09:36 36.751624 -121.839798 62 5870ft 147kts
21-Aug-18 09:37 36.770183 -121.791526 62 5872ft 157kts
21-Aug-18 09:38 36.789166 -121.742195 62 5921ft 161kts
21-Aug-18 09:39 36.808896 -121.691192 62 5920ft 164kts
21-Aug-18 09:40 36.828866 -121.639678 62 5919ft 166kts
21-Aug-18 09:41 36.848995 -121.587647 62 5919ft 167kts
21-Aug-18 09:42 36.869309 -121.535229 62 5919ft 168kts
21-Aug-18 09:43 36.889874 -121.482567 62 5920ft 169kts
21-Aug-18 09:44 36.918679 -121.436484 31 5918ft 169kts
21-Aug-18 09:45 36.959914 -121.408147 26 5921ft 169kts
21-Aug-18 09:46 37.001519 -121.380377 26 5933ft 170kts
21-Aug-18 09:47 37.044041 -121.353152 27 5920ft 172kts
21-Aug-18 09:48 37.085387 -121.325377 28 5898ft 167kts
21-Aug-18 09:49 37.124642 -121.297435 28 5875ft 164kts
21-Aug-18 09:50 37.163980 -121.269067 28 5862ft 163kts
21-Aug-18 09:51 37.203475 -121.241364 26 5850ft 163kts
21-Aug-18 09:52 37.243502 -121.214284 25 5837ft 163kts
21-Aug-18 09:53 37.283637 -121.187460 25 5829ft 164kts
21-Aug-18 09:54 37.323894 -121.160658 25 5829ft 163kts
21-Aug-18 09:55 37.364031 -121.133947 24 5829ft 164kts
21-Aug-18 09:56 37.404254 -121.107142 24 5829ft 164kts
21-Aug-18 09:57 37.444577 -121.080247 24 5829ft 164kts
21-Aug-18 09:58 37.484930 -121.053305 24 5829ft 164kts
21-Aug-18 09:59 37.525210 -121.026381 24 5829ft 164kts
21-Aug-18 10:00 37.565659 -120.999312 23 5829ft 165kts
21-Aug-18 10:01 37.606161 -120.972132 23 5829ft 165kts
21-Aug-18 10:02 37.648418 -120.956958 352 5830ft 159kts
21-Aug-18 10:03 37.692540 -120.961698 351 5829ft 159kts
21-Aug-18 10:04 37.736613 -120.966600 351 5829ft 159kts
21-Aug-18 10:05 37.780778 -120.971476 351 5829ft 159kts
21-Aug-18 10:06 37.825075 -120.976362 351 5829ft 161kts
21-Aug-18 10:07 37.869496 -120.981278 351 5829ft 162kts
21-Aug-18 10:08 37.914408 -120.986249 351 5829ft 163kts
21-Aug-18 10:09 37.959974 -120.991284 351 5830ft 164kts
21-Aug-18 10:10 38.005639 -120.996330 351 5829ft 165kts
21-Aug-18 10:11 38.051258 -121.001633 351 5829ft 165kts
21-Aug-18 10:12 38.092532 -121.019811 317 5830ft 160kts
21-Aug-18 10:13 38.126416 -121.055801 317 5829ft 161kts
21-Aug-18 10:14 38.159897 -121.093647 315 5828ft 161kts
21-Aug-18 10:15 38.192770 -121.131678 315 5828ft 158kts
21-Aug-18 10:16 38.223730 -121.169825 301 5829ft 151kts
21-Aug-18 10:17 38.246947 -121.213515 302 5828ft 147kts
21-Aug-18 10:18 38.270184 -121.256594 302 5627ft 156kts
21-Aug-18 10:19 38.296219 -121.304025 302 4748ft 166kts
21-Aug-18 10:20 38.323115 -121.352255 302 3866ft 166kts
21-Aug-18 10:21 38.348070 -121.396041 302 3818ft 143kts
21-Aug-18 10:22 38.373083 -121.439892 301 3145ft 163kts
21-Aug-18 10:23 38.398339 -121.485402 301 2759ft 146kts
21-Aug-18 10:24 38.421810 -121.524857 316 2727ft 137kts
21-Aug-18 10:25 38.454478 -121.544711 17 2404ft 140kts
21-Aug-18 10:26 38.483168 -121.518947 38 797ft 109kts
21-Aug-18 10:27 38.506167 -121.499899 35 25ft 79kts
21-Aug-18 10:28 38.513370 -121.495019 276 20ft 0kts

Navigation Log

Ident Type
Flight plan parsing failed, navigation log unavailable